sensor_id;sensor_type;location;lat;lon;timestamp;P1;durP1;ratioP1;P2;durP2;ratioP2
20065;SDS011;10193;48.884;9.182;2023-12-22T00:02:18;2.45;;;1.10;;
20065;SDS011;10193;48.884;9.182;2023-12-22T00:04:45;2.05;;;1.08;;
20065;SDS011;10193;48.884;9.182;2023-12-22T00:07:13;2.30;;;1.52;;
20065;SDS011;10193;48.884;9.182;2023-12-22T00:09:40;1.52;;;1.10;;
20065;SDS011;10193;48.884;9.182;2023-12-22T00:12:06;2.72;;;1.35;;
20065;SDS011;10193;48.884;9.182;2023-12-22T00:14:33;1.55;;;1.02;;
20065;SDS011;10193;48.884;9.182;2023-12-22T00:17:00;2.58;;;0.93;;
20065;SDS011;10193;48.884;9.182;2023-12-22T00:19:26;1.58;;;0.90;;
20065;SDS011;10193;48.884;9.182;2023-12-22T00:21:53;2.05;;;0.90;;
20065;SDS011;10193;48.884;9.182;2023-12-22T00:24:21;1.65;;;0.90;;
20065;SDS011;10193;48.884;9.182;2023-12-22T00:26:47;3.38;;;1.30;;
20065;SDS011;10193;48.884;9.182;2023-12-22T00:29:14;3.80;;;1.55;;
20065;SDS011;10193;48.884;9.182;2023-12-22T00:31:41;3.08;;;1.40;;
20065;SDS011;10193;48.884;9.182;2023-12-22T00:34:07;3.10;;;1.30;;
20065;SDS011;10193;48.884;9.182;2023-12-22T00:36:34;3.47;;;1.40;;
20065;SDS011;10193;48.884;9.182;2023-12-22T00:39:01;3.72;;;1.35;;
20065;SDS011;10193;48.884;9.182;2023-12-22T00:41:30;4.57;;;1.67;;
20065;SDS011;10193;48.884;9.182;2023-12-22T00:43:57;3.13;;;1.67;;
20065;SDS011;10193;48.884;9.182;2023-12-22T00:46:23;3.60;;;1.05;;
20065;SDS011;10193;48.884;9.182;2023-12-22T00:48:50;1.08;;;0.75;;
20065;SDS011;10193;48.884;9.182;2023-12-22T00:51:16;0.90;;;0.52;;
20065;SDS011;10193;48.884;9.182;2023-12-22T00:53:43;1.23;;;0.73;;
20065;SDS011;10193;48.884;9.182;2023-12-22T00:56:10;0.57;;;0.50;;
20065;SDS011;10193;48.884;9.182;2023-12-22T00:58:39;1.63;;;0.60;;
20065;SDS011;10193;48.884;9.182;2023-12-22T01:01:06;0.95;;;0.63;;
20065;SDS011;10193;48.884;9.182;2023-12-22T01:03:33;1.00;;;0.82;;
20065;SDS011;10193;48.884;9.182;2023-12-22T01:05:59;1.25;;;0.52;;
20065;SDS011;10193;48.884;9.182;2023-12-22T01:08:26;0.80;;;0.70;;
20065;SDS011;10193;48.884;9.182;2023-12-22T01:10:53;1.77;;;0.63;;
20065;SDS011;10193;48.884;9.182;2023-12-22T01:13:19;1.55;;;0.93;;
20065;SDS011;10193;48.884;9.182;2023-12-22T01:15:47;1.75;;;0.90;;
20065;SDS011;10193;48.884;9.182;2023-12-22T01:18:14;2.38;;;1.13;;
20065;SDS011;10193;48.884;9.182;2023-12-22T01:20:41;3.80;;;1.08;;
20065;SDS011;10193;48.884;9.182;2023-12-22T01:23:07;1.45;;;1.00;;
20065;SDS011;10193;48.884;9.182;2023-12-22T01:25:34;2.42;;;1.23;;
20065;SDS011;10193;48.884;9.182;2023-12-22T01:28:00;2.55;;;1.42;;
20065;SDS011;10193;48.884;9.182;2023-12-22T01:30:27;1.70;;;1.33;;
20065;SDS011;10193;48.884;9.182;2023-12-22T01:32:55;1.63;;;1.08;;
20065;SDS011;10193;48.884;9.182;2023-12-22T01:35:22;2.10;;;1.10;;
20065;SDS011;10193;48.884;9.182;2023-12-22T01:37:48;2.35;;;1.20;;
20065;SDS011;10193;48.884;9.182;2023-12-22T01:40:16;3.30;;;1.50;;
20065;SDS011;10193;48.884;9.182;2023-12-22T01:42:43;2.38;;;1.33;;
20065;SDS011;10193;48.884;9.182;2023-12-22T01:45:10;1.52;;;1.08;;
20065;SDS011;10193;48.884;9.182;2023-12-22T01:47:37;3.63;;;1.60;;
20065;SDS011;10193;48.884;9.182;2023-12-22T01:50:06;2.00;;;1.10;;
20065;SDS011;10193;48.884;9.182;2023-12-22T01:52:35;1.80;;;1.00;;
20065;SDS011;10193;48.884;9.182;2023-12-22T01:55:02;4.50;;;1.10;;
20065;SDS011;10193;48.884;9.182;2023-12-22T01:57:30;3.55;;;1.63;;
20065;SDS011;10193;48.884;9.182;2023-12-22T01:59:57;2.22;;;1.13;;
20065;SDS011;10193;48.884;9.182;2023-12-22T02:02:23;2.35;;;1.17;;
20065;SDS011;10193;48.884;9.182;2023-12-22T02:04:50;3.85;;;1.33;;
20065;SDS011;10193;48.884;9.182;2023-12-22T02:07:18;2.47;;;1.10;;
20065;SDS011;10193;48.884;9.182;2023-12-22T02:09:46;2.75;;;1.20;;
20065;SDS011;10193;48.884;9.182;2023-12-22T02:12:13;3.47;;;1.50;;
20065;SDS011;10193;48.884;9.182;2023-12-22T02:14:39;2.53;;;0.82;;
20065;SDS011;10193;48.884;9.182;2023-12-22T02:17:08;2.25;;;0.98;;
20065;SDS011;10193;48.884;9.182;2023-12-22T02:19:41;0.90;;;0.70;;
20065;SDS011;10193;48.884;9.182;2023-12-22T02:22:08;1.40;;;0.70;;
20065;SDS011;10193;48.884;9.182;2023-12-22T02:24:37;1.95;;;0.82;;
20065;SDS011;10193;48.884;9.182;2023-12-22T02:27:04;1.50;;;0.98;;
20065;SDS011;10193;48.884;9.182;2023-12-22T02:29:35;1.65;;;0.70;;
20065;SDS011;10193;48.884;9.182;2023-12-22T02:32:07;1.27;;;0.60;;
20065;SDS011;10193;48.884;9.182;2023-12-22T02:34:36;1.55;;;0.77;;
20065;SDS011;10193;48.884;9.182;2023-12-22T02:37:07;1.48;;;0.80;;
20065;SDS011;10193;48.884;9.182;2023-12-22T02:39:34;1.15;;;0.85;;
20065;SDS011;10193;48.884;9.182;2023-12-22T02:42:03;0.63;;;0.40;;
20065;SDS011;10193;48.884;9.182;2023-12-22T02:44:31;1.92;;;0.77;;
20065;SDS011;10193;48.884;9.182;2023-12-22T02:46:58;3.33;;;0.95;;
20065;SDS011;10193;48.884;9.182;2023-12-22T02:49:25;0.73;;;0.70;;
20065;SDS011;10193;48.884;9.182;2023-12-22T02:51:51;2.17;;;0.85;;
20065;SDS011;10193;48.884;9.182;2023-12-22T02:54:18;2.10;;;1.05;;
20065;SDS011;10193;48.884;9.182;2023-12-22T02:56:45;2.78;;;1.13;;
20065;SDS011;10193;48.884;9.182;2023-12-22T02:59:13;2.63;;;1.05;;
20065;SDS011;10193;48.884;9.182;2023-12-22T03:01:40;0.85;;;0.57;;
20065;SDS011;10193;48.884;9.182;2023-12-22T03:04:06;3.25;;;1.15;;
20065;SDS011;10193;48.884;9.182;2023-12-22T03:06:33;2.03;;;0.95;;
20065;SDS011;10193;48.884;9.182;2023-12-22T03:09:00;1.67;;;1.08;;
20065;SDS011;10193;48.884;9.182;2023-12-22T03:11:27;2.13;;;1.02;;
20065;SDS011;10193;48.884;9.182;2023-12-22T03:13:54;4.40;;;1.13;;
20065;SDS011;10193;48.884;9.182;2023-12-22T03:16:22;2.47;;;1.10;;
20065;SDS011;10193;48.884;9.182;2023-12-22T03:18:49;3.35;;;1.08;;
20065;SDS011;10193;48.884;9.182;2023-12-22T03:21:16;2.95;;;1.15;;
20065;SDS011;10193;48.884;9.182;2023-12-22T03:23:43;3.45;;;1.17;;
20065;SDS011;10193;48.884;9.182;2023-12-22T03:26:10;2.72;;;1.23;;
20065;SDS011;10193;48.884;9.182;2023-12-22T03:28:37;3.65;;;1.13;;
20065;SDS011;10193;48.884;9.182;2023-12-22T03:31:04;3.97;;;1.52;;
20065;SDS011;10193;48.884;9.182;2023-12-22T03:33:33;3.17;;;1.38;;
20065;SDS011;10193;48.884;9.182;2023-12-22T03:35:59;3.83;;;1.30;;
20065;SDS011;10193;48.884;9.182;2023-12-22T03:38:26;2.42;;;1.30;;
20065;SDS011;10193;48.884;9.182;2023-12-22T03:40:53;2.25;;;1.15;;
20065;SDS011;10193;48.884;9.182;2023-12-22T03:43:19;2.78;;;1.20;;
20065;SDS011;10193;48.884;9.182;2023-12-22T03:45:46;2.45;;;1.55;;
20065;SDS011;10193;48.884;9.182;2023-12-22T03:48:13;2.75;;;1.08;;
20065;SDS011;10193;48.884;9.182;2023-12-22T03:50:41;1.73;;;0.98;;
20065;SDS011;10193;48.884;9.182;2023-12-22T03:53:07;4.32;;;1.50;;
20065;SDS011;10193;48.884;9.182;2023-12-22T03:55:34;2.25;;;1.10;;
20065;SDS011;10193;48.884;9.182;2023-12-22T03:58:00;2.92;;;1.20;;
20065;SDS011;10193;48.884;9.182;2023-12-22T04:00:29;1.83;;;1.63;;
20065;SDS011;10193;48.884;9.182;2023-12-22T04:02:56;3.17;;;1.45;;
20065;SDS011;10193;48.884;9.182;2023-12-22T04:05:22;4.85;;;1.60;;
20065;SDS011;10193;48.884;9.182;2023-12-22T04:07:50;1.95;;;1.02;;
20065;SDS011;10193;48.884;9.182;2023-12-22T04:10:17;2.67;;;0.88;;
20065;SDS011;10193;48.884;9.182;2023-12-22T04:12:44;1.15;;;0.93;;
20065;SDS011;10193;48.884;9.182;2023-12-22T04:15:10;2.15;;;1.15;;
20065;SDS011;10193;48.884;9.182;2023-12-22T04:17:38;1.73;;;0.90;;
20065;SDS011;10193;48.884;9.182;2023-12-22T04:20:05;1.90;;;1.40;;
20065;SDS011;10193;48.884;9.182;2023-12-22T04:22:32;1.55;;;0.90;;
20065;SDS011;10193;48.884;9.182;2023-12-22T04:25:00;2.08;;;1.10;;
20065;SDS011;10193;48.884;9.182;2023-12-22T04:27:27;2.33;;;1.17;;
20065;SDS011;10193;48.884;9.182;2023-12-22T04:29:53;2.80;;;1.30;;
20065;SDS011;10193;48.884;9.182;2023-12-22T04:32:20;3.80;;;1.38;;
20065;SDS011;10193;48.884;9.182;2023-12-22T04:34:47;2.65;;;1.40;;
20065;SDS011;10193;48.884;9.182;2023-12-22T04:37:13;2.97;;;1.48;;
20065;SDS011;10193;48.884;9.182;2023-12-22T04:39:40;3.47;;;1.17;;
20065;SDS011;10193;48.884;9.182;2023-12-22T04:42:08;2.95;;;1.30;;
20065;SDS011;10193;48.884;9.182;2023-12-22T04:44:34;3.72;;;1.52;;
20065;SDS011;10193;48.884;9.182;2023-12-22T04:47:01;3.03;;;1.23;;
20065;SDS011;10193;48.884;9.182;2023-12-22T04:49:28;4.05;;;1.55;;
20065;SDS011;10193;48.884;9.182;2023-12-22T04:51:55;3.38;;;1.45;;
20065;SDS011;10193;48.884;9.182;2023-12-22T04:54:21;4.63;;;1.60;;
20065;SDS011;10193;48.884;9.182;2023-12-22T04:56:48;3.72;;;1.55;;
20065;SDS011;10193;48.884;9.182;2023-12-22T04:59:16;4.50;;;1.48;;
20065;SDS011;10193;48.884;9.182;2023-12-22T05:01:42;3.30;;;1.38;;
20065;SDS011;10193;48.884;9.182;2023-12-22T05:04:10;3.83;;;1.60;;
20065;SDS011;10193;48.884;9.182;2023-12-22T05:06:37;3.15;;;1.30;;
20065;SDS011;10193;48.884;9.182;2023-12-22T05:09:04;2.00;;;1.30;;
20065;SDS011;10193;48.884;9.182;2023-12-22T05:11:30;5.15;;;1.50;;
20065;SDS011;10193;48.884;9.182;2023-12-22T05:13:57;2.78;;;1.50;;
20065;SDS011;10193;48.884;9.182;2023-12-22T05:16:25;3.97;;;1.48;;
20065;SDS011;10193;48.884;9.182;2023-12-22T05:18:53;4.95;;;1.70;;
20065;SDS011;10193;48.884;9.182;2023-12-22T05:21:20;3.38;;;1.45;;
20065;SDS011;10193;48.884;9.182;2023-12-22T05:23:46;3.42;;;2.00;;
20065;SDS011;10193;48.884;9.182;2023-12-22T05:26:16;4.28;;;1.60;;
20065;SDS011;10193;48.884;9.182;2023-12-22T05:28:43;5.68;;;1.90;;
20065;SDS011;10193;48.884;9.182;2023-12-22T05:31:09;3.88;;;1.88;;
20065;SDS011;10193;48.884;9.182;2023-12-22T05:33:37;4.95;;;1.40;;
20065;SDS011;10193;48.884;9.182;2023-12-22T05:36:04;6.32;;;1.98;;
20065;SDS011;10193;48.884;9.182;2023-12-22T05:38:31;6.93;;;2.20;;
20065;SDS011;10193;48.884;9.182;2023-12-22T05:40:58;6.80;;;2.13;;
20065;SDS011;10193;48.884;9.182;2023-12-22T05:43:24;4.25;;;1.77;;
20065;SDS011;10193;48.884;9.182;2023-12-22T05:45:51;4.13;;;2.00;;
20065;SDS011;10193;48.884;9.182;2023-12-22T05:48:18;5.10;;;1.65;;
20065;SDS011;10193;48.884;9.182;2023-12-22T05:50:48;6.07;;;2.53;;
20065;SDS011;10193;48.884;9.182;2023-12-22T05:53:14;4.57;;;1.70;;
20065;SDS011;10193;48.884;9.182;2023-12-22T05:55:41;5.03;;;1.95;;
20065;SDS011;10193;48.884;9.182;2023-12-22T05:58:08;5.72;;;2.33;;
20065;SDS011;10193;48.884;9.182;2023-12-22T06:00:34;4.97;;;2.17;;
20065;SDS011;10193;48.884;9.182;2023-12-22T06:03:01;5.35;;;2.00;;
20065;SDS011;10193;48.884;9.182;2023-12-22T06:05:28;5.20;;;2.03;;
20065;SDS011;10193;48.884;9.182;2023-12-22T06:07:56;6.13;;;2.30;;
20065;SDS011;10193;48.884;9.182;2023-12-22T06:10:23;8.27;;;2.53;;
20065;SDS011;10193;48.884;9.182;2023-12-22T06:12:50;6.72;;;2.22;;
20065;SDS011;10193;48.884;9.182;2023-12-22T06:15:16;5.13;;;2.10;;
20065;SDS011;10193;48.884;9.182;2023-12-22T06:17:43;8.73;;;2.60;;
20065;SDS011;10193;48.884;9.182;2023-12-22T06:20:10;5.82;;;2.17;;
20065;SDS011;10193;48.884;9.182;2023-12-22T06:22:37;5.63;;;1.90;;
20065;SDS011;10193;48.884;9.182;2023-12-22T06:25:05;5.05;;;2.25;;
20065;SDS011;10193;48.884;9.182;2023-12-22T06:27:33;5.30;;;2.00;;
20065;SDS011;10193;48.884;9.182;2023-12-22T06:29:59;7.80;;;2.38;;
20065;SDS011;10193;48.884;9.182;2023-12-22T06:32:26;5.75;;;2.05;;
20065;SDS011;10193;48.884;9.182;2023-12-22T06:34:52;4.95;;;2.05;;
20065;SDS011;10193;48.884;9.182;2023-12-22T06:37:19;5.88;;;2.05;;
20065;SDS011;10193;48.884;9.182;2023-12-22T06:39:46;7.10;;;2.00;;
20065;SDS011;10193;48.884;9.182;2023-12-22T06:42:14;6.13;;;2.00;;
20065;SDS011;10193;48.884;9.182;2023-12-22T06:44:41;5.25;;;1.83;;
20065;SDS011;10193;48.884;9.182;2023-12-22T06:47:08;6.97;;;2.08;;
20065;SDS011;10193;48.884;9.182;2023-12-22T06:49:35;6.63;;;2.25;;
20065;SDS011;10193;48.884;9.182;2023-12-22T06:52:02;5.55;;;2.03;;
20065;SDS011;10193;48.884;9.182;2023-12-22T06:54:29;5.22;;;1.98;;
20065;SDS011;10193;48.884;9.182;2023-12-22T06:56:55;4.18;;;1.92;;
20065;SDS011;10193;48.884;9.182;2023-12-22T06:59:23;5.32;;;1.85;;
20065;SDS011;10193;48.884;9.182;2023-12-22T07:01:50;3.75;;;1.45;;
20065;SDS011;10193;48.884;9.182;2023-12-22T07:04:17;4.60;;;2.05;;
20065;SDS011;10193;48.884;9.182;2023-12-22T07:06:43;4.47;;;1.67;;
20065;SDS011;10193;48.884;9.182;2023-12-22T07:09:31;4.43;;;1.83;;
20065;SDS011;10193;48.884;9.182;2023-12-22T07:11:58;4.35;;;1.73;;
20065;SDS011;10193;48.884;9.182;2023-12-22T07:14:26;6.35;;;2.00;;
20065;SDS011;10193;48.884;9.182;2023-12-22T07:16:52;3.97;;;1.80;;
20065;SDS011;10193;48.884;9.182;2023-12-22T07:19:19;4.35;;;1.92;;
20065;SDS011;10193;48.884;9.182;2023-12-22T07:21:46;6.10;;;1.90;;
20065;SDS011;10193;48.884;9.182;2023-12-22T07:24:12;5.38;;;1.88;;
20065;SDS011;10193;48.884;9.182;2023-12-22T07:26:39;4.35;;;1.85;;
20065;SDS011;10193;48.884;9.182;2023-12-22T07:29:06;5.25;;;1.90;;
20065;SDS011;10193;48.884;9.182;2023-12-22T07:31:34;4.82;;;1.80;;
20065;SDS011;10193;48.884;9.182;2023-12-22T07:34:01;4.55;;;1.73;;
20065;SDS011;10193;48.884;9.182;2023-12-22T07:36:28;5.38;;;1.67;;
20065;SDS011;10193;48.884;9.182;2023-12-22T07:38:54;6.72;;;2.13;;
20065;SDS011;10193;48.884;9.182;2023-12-22T07:41:24;4.90;;;1.80;;
20065;SDS011;10193;48.884;9.182;2023-12-22T07:43:51;5.38;;;2.20;;
20065;SDS011;10193;48.884;9.182;2023-12-22T07:46:17;4.07;;;1.90;;
20065;SDS011;10193;48.884;9.182;2023-12-22T07:48:45;4.20;;;1.42;;
20065;SDS011;10193;48.884;9.182;2023-12-22T07:51:12;4.63;;;1.60;;
20065;SDS011;10193;48.884;9.182;2023-12-22T07:53:39;6.40;;;2.08;;
20065;SDS011;10193;48.884;9.182;2023-12-22T07:56:06;4.40;;;1.63;;
20065;SDS011;10193;48.884;9.182;2023-12-22T07:58:33;3.38;;;1.80;;
20065;SDS011;10193;48.884;9.182;2023-12-22T08:00:59;6.68;;;2.35;;
20065;SDS011;10193;48.884;9.182;2023-12-22T08:03:26;6.20;;;2.10;;
20065;SDS011;10193;48.884;9.182;2023-12-22T08:05:54;3.75;;;1.80;;
20065;SDS011;10193;48.884;9.182;2023-12-22T08:08:21;4.75;;;1.70;;
20065;SDS011;10193;48.884;9.182;2023-12-22T08:10:48;4.05;;;1.40;;
20065;SDS011;10193;48.884;9.182;2023-12-22T08:13:14;4.88;;;1.60;;
20065;SDS011;10193;48.884;9.182;2023-12-22T08:15:43;5.80;;;1.85;;
20065;SDS011;10193;48.884;9.182;2023-12-22T08:18:09;2.78;;;1.42;;
20065;SDS011;10193;48.884;9.182;2023-12-22T08:20:36;6.25;;;1.80;;
20065;SDS011;10193;48.884;9.182;2023-12-22T08:23:04;3.83;;;1.80;;
20065;SDS011;10193;48.884;9.182;2023-12-22T08:25:31;4.53;;;2.35;;
20065;SDS011;10193;48.884;9.182;2023-12-22T08:27:58;6.20;;;2.45;;
20065;SDS011;10193;48.884;9.182;2023-12-22T08:30:24;6.68;;;2.08;;
20065;SDS011;10193;48.884;9.182;2023-12-22T08:32:51;6.65;;;2.50;;
20065;SDS011;10193;48.884;9.182;2023-12-22T08:35:18;5.20;;;1.95;;
20065;SDS011;10193;48.884;9.182;2023-12-22T08:37:45;7.35;;;2.58;;
20065;SDS011;10193;48.884;9.182;2023-12-22T08:40:13;4.90;;;2.00;;
20065;SDS011;10193;48.884;9.182;2023-12-22T08:42:40;5.85;;;2.10;;
20065;SDS011;10193;48.884;9.182;2023-12-22T08:45:07;5.22;;;2.10;;
20065;SDS011;10193;48.884;9.182;2023-12-22T08:47:34;6.28;;;2.30;;
20065;SDS011;10193;48.884;9.182;2023-12-22T08:50:01;4.43;;;2.00;;
20065;SDS011;10193;48.884;9.182;2023-12-22T08:52:29;4.43;;;2.08;;
20065;SDS011;10193;48.884;9.182;2023-12-22T08:54:55;5.18;;;2.13;;
20065;SDS011;10193;48.884;9.182;2023-12-22T08:57:23;6.15;;;2.38;;
20065;SDS011;10193;48.884;9.182;2023-12-22T08:59:50;6.85;;;3.03;;
20065;SDS011;10193;48.884;9.182;2023-12-22T09:02:17;4.38;;;2.20;;
20065;SDS011;10193;48.884;9.182;2023-12-22T09:04:43;6.50;;;2.10;;
20065;SDS011;10193;48.884;9.182;2023-12-22T09:07:10;6.35;;;2.10;;
20065;SDS011;10193;48.884;9.182;2023-12-22T09:09:37;6.07;;;2.42;;
20065;SDS011;10193;48.884;9.182;2023-12-22T09:12:03;6.55;;;2.72;;
20065;SDS011;10193;48.884;9.182;2023-12-22T09:14:32;10.48;;;2.50;;
20065;SDS011;10193;48.884;9.182;2023-12-22T09:16:58;6.10;;;2.45;;
20065;SDS011;10193;48.884;9.182;2023-12-22T09:19:25;10.90;;;3.30;;
20065;SDS011;10193;48.884;9.182;2023-12-22T09:21:52;11.00;;;3.00;;
20065;SDS011;10193;48.884;9.182;2023-12-22T09:24:19;8.63;;;3.20;;
20065;SDS011;10193;48.884;9.182;2023-12-22T09:26:46;8.57;;;2.80;;
20065;SDS011;10193;48.884;9.182;2023-12-22T09:29:12;6.53;;;2.70;;
20065;SDS011;10193;48.884;9.182;2023-12-22T09:31:40;5.07;;;2.60;;
20065;SDS011;10193;48.884;9.182;2023-12-22T09:34:07;8.15;;;2.67;;
20065;SDS011;10193;48.884;9.182;2023-12-22T09:36:34;9.07;;;2.95;;
20065;SDS011;10193;48.884;9.182;2023-12-22T09:39:00;8.43;;;2.60;;
20065;SDS011;10193;48.884;9.182;2023-12-22T09:41:27;8.38;;;3.20;;
20065;SDS011;10193;48.884;9.182;2023-12-22T09:43:54;7.57;;;2.92;;
20065;SDS011;10193;48.884;9.182;2023-12-22T09:46:23;9.52;;;2.67;;
20065;SDS011;10193;48.884;9.182;2023-12-22T09:48:53;7.95;;;2.88;;
20065;SDS011;10193;48.884;9.182;2023-12-22T09:51:20;9.98;;;3.10;;
20065;SDS011;10193;48.884;9.182;2023-12-22T09:53:47;7.15;;;2.17;;
20065;SDS011;10193;48.884;9.182;2023-12-22T09:56:16;9.95;;;2.67;;
20065;SDS011;10193;48.884;9.182;2023-12-22T09:58:47;9.98;;;3.15;;
20065;SDS011;10193;48.884;9.182;2023-12-22T10:01:16;7.40;;;2.72;;
20065;SDS011;10193;48.884;9.182;2023-12-22T10:03:47;7.30;;;2.42;;
20065;SDS011;10193;48.884;9.182;2023-12-22T10:06:17;6.25;;;2.40;;
20065;SDS011;10193;48.884;9.182;2023-12-22T10:08:44;7.22;;;2.50;;
20065;SDS011;10193;48.884;9.182;2023-12-22T10:11:15;6.18;;;2.10;;
20065;SDS011;10193;48.884;9.182;2023-12-22T10:13:43;5.50;;;2.17;;
20065;SDS011;10193;48.884;9.182;2023-12-22T10:16:10;7.90;;;2.67;;
20065;SDS011;10193;48.884;9.182;2023-12-22T10:18:37;9.52;;;2.70;;
20065;SDS011;10193;48.884;9.182;2023-12-22T10:21:03;10.10;;;2.95;;
20065;SDS011;10193;48.884;9.182;2023-12-22T10:23:32;6.10;;;2.20;;
20065;SDS011;10193;48.884;9.182;2023-12-22T10:25:58;6.90;;;2.90;;
20065;SDS011;10193;48.884;9.182;2023-12-22T10:28:26;4.25;;;2.08;;
20065;SDS011;10193;48.884;9.182;2023-12-22T10:30:53;6.90;;;2.10;;
20065;SDS011;10193;48.884;9.182;2023-12-22T10:33:24;7.63;;;2.60;;
20065;SDS011;10193;48.884;9.182;2023-12-22T10:35:53;5.85;;;2.40;;
20065;SDS011;10193;48.884;9.182;2023-12-22T10:38:20;5.72;;;2.55;;
20065;SDS011;10193;48.884;9.182;2023-12-22T10:40:48;9.48;;;2.65;;
20065;SDS011;10193;48.884;9.182;2023-12-22T10:43:16;8.02;;;2.80;;
20065;SDS011;10193;48.884;9.182;2023-12-22T10:45:42;7.70;;;2.53;;
20065;SDS011;10193;48.884;9.182;2023-12-22T10:48:10;6.82;;;2.42;;
20065;SDS011;10193;48.884;9.182;2023-12-22T10:50:38;8.27;;;2.50;;
20065;SDS011;10193;48.884;9.182;2023-12-22T10:53:05;7.22;;;2.75;;
20065;SDS011;10193;48.884;9.182;2023-12-22T10:55:33;8.77;;;2.42;;
20065;SDS011;10193;48.884;9.182;2023-12-22T10:58:02;7.63;;;2.38;;
20065;SDS011;10193;48.884;9.182;2023-12-22T11:00:29;3.85;;;2.00;;
20065;SDS011;10193;48.884;9.182;2023-12-22T11:02:59;5.15;;;2.30;;
20065;SDS011;10193;48.884;9.182;2023-12-22T11:05:28;4.15;;;1.60;;
20065;SDS011;10193;48.884;9.182;2023-12-22T11:07:57;3.70;;;1.55;;
20065;SDS011;10193;48.884;9.182;2023-12-22T11:10:27;5.95;;;1.88;;
20065;SDS011;10193;48.884;9.182;2023-12-22T11:12:56;3.25;;;1.23;;
20065;SDS011;10193;48.884;9.182;2023-12-22T11:15:25;3.70;;;1.60;;
20065;SDS011;10193;48.884;9.182;2023-12-22T11:17:53;5.90;;;2.13;;
20065;SDS011;10193;48.884;9.182;2023-12-22T11:20:22;4.45;;;1.70;;
20065;SDS011;10193;48.884;9.182;2023-12-22T11:22:51;3.88;;;1.63;;
20065;SDS011;10193;48.884;9.182;2023-12-22T11:25:21;3.63;;;1.40;;
20065;SDS011;10193;48.884;9.182;2023-12-22T11:27:49;2.92;;;1.40;;
20065;SDS011;10193;48.884;9.182;2023-12-22T11:30:18;3.58;;;1.00;;
20065;SDS011;10193;48.884;9.182;2023-12-22T11:32:47;5.03;;;1.60;;
20065;SDS011;10193;48.884;9.182;2023-12-22T11:35:15;2.85;;;1.33;;
20065;SDS011;10193;48.884;9.182;2023-12-22T11:37:43;1.95;;;1.30;;
20065;SDS011;10193;48.884;9.182;2023-12-22T11:40:10;2.90;;;1.50;;
20065;SDS011;10193;48.884;9.182;2023-12-22T11:42:38;2.03;;;1.02;;
20065;SDS011;10193;48.884;9.182;2023-12-22T11:45:09;3.53;;;1.10;;
20065;SDS011;10193;48.884;9.182;2023-12-22T11:47:36;2.70;;;1.20;;
20065;SDS011;10193;48.884;9.182;2023-12-22T11:50:05;2.38;;;1.00;;
20065;SDS011;10193;48.884;9.182;2023-12-22T11:52:35;2.67;;;1.00;;
20065;SDS011;10193;48.884;9.182;2023-12-22T11:55:01;1.55;;;0.90;;
20065;SDS011;10193;48.884;9.182;2023-12-22T11:57:29;1.08;;;0.70;;
20065;SDS011;10193;48.884;9.182;2023-12-22T11:59:56;1.88;;;0.80;;
20065;SDS011;10193;48.884;9.182;2023-12-22T12:02:23;2.72;;;1.33;;
20065;SDS011;10193;48.884;9.182;2023-12-22T12:04:50;1.98;;;0.93;;
20065;SDS011;10193;48.884;9.182;2023-12-22T12:10:05;1.92;;;0.60;;
20065;SDS011;10193;48.884;9.182;2023-12-22T12:12:33;1.25;;;0.50;;
20065;SDS011;10193;48.884;9.182;2023-12-22T12:15:04;1.70;;;0.80;;
20065;SDS011;10193;48.884;9.182;2023-12-22T12:17:33;1.48;;;0.70;;
20065;SDS011;10193;48.884;9.182;2023-12-22T12:20:04;1.33;;;0.60;;
20065;SDS011;10193;48.884;9.182;2023-12-22T12:22:32;1.70;;;0.70;;
20065;SDS011;10193;48.884;9.182;2023-12-22T12:25:01;1.00;;;0.70;;
20065;SDS011;10193;48.884;9.182;2023-12-22T12:27:28;1.15;;;0.60;;
20065;SDS011;10193;48.884;9.182;2023-12-22T12:29:54;0.75;;;0.50;;
20065;SDS011;10193;48.884;9.182;2023-12-22T12:32:23;1.40;;;0.60;;
20065;SDS011;10193;48.884;9.182;2023-12-22T12:34:49;1.13;;;0.60;;
20065;SDS011;10193;48.884;9.182;2023-12-22T12:37:17;1.27;;;0.63;;
20065;SDS011;10193;48.884;9.182;2023-12-22T12:39:45;0.90;;;0.43;;
20065;SDS011;10193;48.884;9.182;2023-12-22T12:42:15;0.50;;;0.30;;
20065;SDS011;10193;48.884;9.182;2023-12-22T12:44:42;0.90;;;0.40;;
20065;SDS011;10193;48.884;9.182;2023-12-22T12:47:13;2.00;;;0.68;;
20065;SDS011;10193;48.884;9.182;2023-12-22T12:49:40;0.73;;;0.30;;
20065;SDS011;10193;48.884;9.182;2023-12-22T12:52:11;0.20;;;0.20;;
20065;SDS011;10193;48.884;9.182;2023-12-22T12:54:39;0.93;;;0.50;;
20065;SDS011;10193;48.884;9.182;2023-12-22T12:57:05;0.40;;;0.40;;
20065;SDS011;10193;48.884;9.182;2023-12-22T12:59:33;0.50;;;0.40;;
20065;SDS011;10193;48.884;9.182;2023-12-22T13:02:00;1.35;;;0.30;;
20065;SDS011;10193;48.884;9.182;2023-12-22T13:04:36;0.35;;;0.28;;
20065;SDS011;10193;48.884;9.182;2023-12-22T13:07:03;0.30;;;0.30;;
20065;SDS011;10193;48.884;9.182;2023-12-22T13:09:31;0.57;;;0.30;;
20065;SDS011;10193;48.884;9.182;2023-12-22T13:11:59;0.73;;;0.40;;
20065;SDS011;10193;48.884;9.182;2023-12-22T13:14:26;0.30;;;0.30;;
20065;SDS011;10193;48.884;9.182;2023-12-22T13:16:54;0.40;;;0.40;;
20065;SDS011;10193;48.884;9.182;2023-12-22T13:19:23;0.32;;;0.32;;
20065;SDS011;10193;48.884;9.182;2023-12-22T13:21:50;0.35;;;0.35;;
20065;SDS011;10193;48.884;9.182;2023-12-22T13:24:17;0.30;;;0.30;;
20065;SDS011;10193;48.884;9.182;2023-12-22T13:26:44;1.05;;;0.43;;
20065;SDS011;10193;48.884;9.182;2023-12-22T13:29:12;0.50;;;0.45;;
20065;SDS011;10193;48.884;9.182;2023-12-22T13:31:39;0.32;;;0.32;;
20065;SDS011;10193;48.884;9.182;2023-12-22T13:34:09;0.55;;;0.40;;
20065;SDS011;10193;48.884;9.182;2023-12-22T13:36:37;0.73;;;0.40;;
20065;SDS011;10193;48.884;9.182;2023-12-22T13:39:04;0.93;;;0.30;;
20065;SDS011;10193;48.884;9.182;2023-12-22T13:41:31;0.43;;;0.30;;
20065;SDS011;10193;48.884;9.182;2023-12-22T13:44:02;0.32;;;0.32;;
20065;SDS011;10193;48.884;9.182;2023-12-22T13:46:29;0.85;;;0.57;;
20065;SDS011;10193;48.884;9.182;2023-12-22T13:48:56;0.30;;;0.30;;
20065;SDS011;10193;48.884;9.182;2023-12-22T13:51:25;0.40;;;0.40;;
20065;SDS011;10193;48.884;9.182;2023-12-22T13:53:52;0.40;;;0.40;;
20065;SDS011;10193;48.884;9.182;2023-12-22T13:56:18;0.55;;;0.55;;
20065;SDS011;10193;48.884;9.182;2023-12-22T13:58:45;1.05;;;0.60;;
20065;SDS011;10193;48.884;9.182;2023-12-22T14:01:13;0.63;;;0.50;;
20065;SDS011;10193;48.884;9.182;2023-12-22T14:03:41;0.55;;;0.40;;
20065;SDS011;10193;48.884;9.182;2023-12-22T14:06:08;1.08;;;0.50;;
20065;SDS011;10193;48.884;9.182;2023-12-22T14:08:36;0.55;;;0.55;;
20065;SDS011;10193;48.884;9.182;2023-12-22T14:11:02;0.68;;;0.40;;
20065;SDS011;10193;48.884;9.182;2023-12-22T14:13:29;0.50;;;0.50;;
20065;SDS011;10193;48.884;9.182;2023-12-22T14:15:56;0.50;;;0.50;;
20065;SDS011;10193;48.884;9.182;2023-12-22T14:18:23;0.40;;;0.40;;
20065;SDS011;10193;48.884;9.182;2023-12-22T14:20:50;0.68;;;0.40;;
20065;SDS011;10193;48.884;9.182;2023-12-22T14:23:16;0.55;;;0.55;;
20065;SDS011;10193;48.884;9.182;2023-12-22T14:25:44;0.50;;;0.50;;
20065;SDS011;10193;48.884;9.182;2023-12-22T14:28:11;0.57;;;0.40;;
20065;SDS011;10193;48.884;9.182;2023-12-22T14:30:38;0.30;;;0.30;;
20065;SDS011;10193;48.884;9.182;2023-12-22T14:33:04;0.25;;;0.25;;
20065;SDS011;10193;48.884;9.182;2023-12-22T14:35:31;0.40;;;0.40;;
20065;SDS011;10193;48.884;9.182;2023-12-22T14:37:58;0.45;;;0.45;;
20065;SDS011;10193;48.884;9.182;2023-12-22T14:40:24;0.40;;;0.40;;
20065;SDS011;10193;48.884;9.182;2023-12-22T14:42:52;1.50;;;0.50;;
20065;SDS011;10193;48.884;9.182;2023-12-22T14:45:19;0.55;;;0.55;;
20065;SDS011;10193;48.884;9.182;2023-12-22T14:47:46;0.50;;;0.50;;
20065;SDS011;10193;48.884;9.182;2023-12-22T14:50:13;0.45;;;0.45;;
20065;SDS011;10193;48.884;9.182;2023-12-22T14:52:40;0.47;;;0.40;;